createdAt,value
2022-08-10T00:01:44.931Z,45.78
2022-08-10T00:04:21.530Z,45.81
2022-08-10T00:06:51.418Z,45.90
2022-08-10T00:09:21.401Z,46.03
2022-08-10T00:11:49.717Z,45.82
2022-08-10T00:14:17.982Z,46.30
2022-08-10T00:16:46.292Z,46.48
2022-08-10T00:19:16.668Z,46.33
2022-08-10T00:21:47.595Z,46.67
2022-08-10T00:24:16.115Z,46.68
2022-08-10T00:28:01.472Z,46.88
2022-08-10T00:29:34.694Z,46.92
2022-08-10T00:32:03.083Z,46.99
2022-08-10T00:34:33.066Z,47.15
2022-08-10T00:37:01.730Z,47.28
2022-08-10T00:39:35.864Z,47.50
2022-08-10T00:42:08.237Z,47.54
2022-08-10T00:44:37.936Z,47.88
2022-08-10T00:47:06.739Z,48.00
2022-08-10T00:49:35.589Z,48.29
2022-08-10T00:52:05.015Z,48.27
2022-08-10T00:54:33.610Z,48.32
2022-08-10T00:57:16.970Z,48.28
2022-08-10T00:59:59.114Z,48.33
2022-08-10T01:02:29.555Z,48.36
2022-08-10T01:05:02.271Z,48.33
2022-08-10T01:08:02.048Z,48.75
2022-08-10T01:10:42.770Z,48.53
2022-08-10T01:13:18.224Z,48.74
2022-08-10T01:15:57.117Z,48.59
2022-08-10T01:18:37.786Z,48.63
2022-08-10T01:21:54.168Z,48.85
2022-08-10T01:25:00.320Z,48.90
2022-08-10T01:27:34.158Z,48.92
2022-08-10T01:30:07.984Z,48.71
2022-08-10T01:32:44.199Z,48.89
2022-08-10T01:35:18.569Z,48.91
2022-08-10T01:37:52.646Z,49.05
2022-08-10T01:40:26.791Z,48.95
2022-08-10T01:43:07.927Z,49.00
2022-08-10T01:45:45.593Z,49.13
2022-08-10T01:48:31.667Z,49.08
2022-08-10T01:51:10.945Z,49.15
2022-08-10T01:53:44.212Z,49.28
2022-08-10T01:56:15.696Z,49.33
2022-08-10T01:58:46.311Z,49.12
2022-08-10T02:01:19.997Z,49.18
2022-08-10T02:04:04.344Z,49.33
2022-08-10T02:06:36.969Z,49.18
2022-08-10T02:09:07.865Z,49.38
2022-08-10T02:12:07.735Z,48.97
2022-08-10T02:14:32.952Z,49.24
2022-08-10T02:17:06.787Z,49.43
2022-08-10T02:19:37.712Z,49.41
2022-08-10T02:22:36.059Z,49.43
2022-08-10T02:24:57.512Z,49.68
2022-08-10T02:27:29.287Z,49.57
2022-08-10T02:29:59.406Z,49.66
2022-08-10T02:32:37.893Z,49.79
2022-08-10T02:35:21.972Z,49.69
2022-08-10T02:37:54.173Z,49.63
2022-08-10T02:45:18.298Z,49.76
2022-08-10T02:45:27.644Z,49.81
2022-08-10T02:46:18.286Z,49.68
2022-08-10T02:48:56.307Z,49.69
2022-08-10T02:52:07.541Z,49.81
2022-08-10T02:54:23.909Z,49.78
2022-08-10T02:56:56.785Z,49.98
2022-08-10T02:59:40.168Z,49.73
2022-08-10T03:02:12.087Z,50.16
2022-08-10T03:04:55.627Z,50.18
2022-08-10T03:07:43.281Z,50.40
2022-08-10T03:10:17.809Z,50.20
2022-08-10T03:12:50.611Z,50.30
2022-08-10T03:15:21.080Z,50.35
2022-08-10T03:17:57.479Z,50.40
2022-08-10T03:20:36.830Z,50.38
2022-08-10T03:23:11.227Z,50.15
2022-08-10T03:25:40.214Z,50.05
2022-08-10T03:28:10.304Z,50.23
2022-08-10T03:30:47.045Z,50.38
2022-08-10T03:33:16.884Z,50.14
2022-08-10T03:36:41.692Z,50.17
2022-08-10T03:38:35.524Z,50.00
2022-08-10T03:41:05.547Z,50.16
2022-08-10T03:43:35.732Z,50.00
2022-08-10T03:46:09.596Z,49.99
2022-08-10T03:48:48.874Z,49.97
2022-08-10T03:51:21.696Z,50.25
2022-08-10T03:54:04.335Z,50.03
2022-08-10T03:56:36.224Z,50.08
2022-08-10T03:59:05.856Z,50.10
2022-08-10T04:02:45.385Z,49.88
2022-08-10T04:04:25.376Z,50.10
2022-08-10T04:07:00.368Z,49.83
2022-08-10T04:09:42.980Z,49.98
2022-08-10T04:12:20.366Z,50.03
2022-08-10T04:14:51.927Z,49.85
2022-08-10T04:18:02.968Z,49.92
2022-08-10T04:20:19.622Z,49.91
2022-08-10T04:22:53.656Z,49.88
2022-08-10T04:25:23.273Z,49.85
2022-08-10T04:27:52.250Z,49.98
2022-08-10T04:30:20.764Z,50.16
2022-08-10T04:32:55.198Z,50.10
2022-08-10T04:35:25.287Z,49.97
2022-08-10T04:37:58.045Z,49.81
2022-08-10T04:40:29.092Z,50.05
2022-08-10T04:43:05.785Z,50.16
2022-08-10T04:45:49.888Z,50.07
2022-08-10T04:48:42.400Z,50.36
2022-08-10T04:51:16.869Z,50.21
2022-08-10T04:54:05.024Z,50.03
2022-08-10T04:56:38.766Z,50.17
2022-08-10T04:59:08.533Z,50.30
2022-08-10T05:02:30.168Z,50.24
2022-08-10T05:04:37.515Z,50.38
2022-08-10T05:07:09.144Z,50.23
2022-08-10T05:10:02.556Z,49.98
2022-08-10T05:12:28.124Z,50.17
2022-08-10T05:14:56.648Z,50.54
2022-08-10T05:17:27.997Z,50.58
2022-08-10T05:20:03.719Z,50.41
2022-08-10T05:22:38.451Z,50.28
2022-08-10T05:25:10.346Z,50.61
2022-08-10T05:27:39.108Z,50.55
2022-08-10T05:30:09.458Z,50.60
2022-08-10T05:32:57.872Z,50.43
2022-08-10T05:35:27.614Z,50.42
2022-08-10T05:38:09.087Z,50.54
2022-08-10T05:40:46.253Z,50.57
2022-08-10T05:43:16.957Z,50.35
2022-08-10T05:46:19.636Z,50.29
2022-08-10T05:48:56.965Z,50.21
2022-08-10T05:51:24.563Z,49.99
2022-08-10T05:54:02.862Z,50.21
2022-08-10T05:56:54.192Z,49.92
2022-08-10T06:00:11.145Z,50.08
2022-08-10T06:02:30.898Z,50.24
2022-08-10T06:05:11.862Z,50.29
2022-08-10T06:07:42.698Z,50.33
2022-08-10T06:10:28.541Z,50.36
2022-08-10T06:13:29.653Z,50.60
2022-08-10T06:16:06.946Z,50.93
2022-08-10T06:18:37.041Z,51.19
2022-08-10T06:21:06.148Z,50.97
2022-08-10T06:23:35.807Z,50.93
2022-08-10T06:26:10.103Z,51.00
2022-08-10T06:29:01.953Z,50.97
2022-08-10T06:31:46.994Z,51.04
2022-08-10T06:34:20.572Z,50.70
2022-08-10T06:36:49.450Z,50.55
2022-08-10T06:39:32.976Z,50.47
2022-08-10T06:42:14.792Z,50.55
2022-08-10T06:44:55.370Z,50.25
2022-08-10T06:47:27.927Z,50.15
2022-08-10T06:49:59.646Z,50.28
2022-08-10T06:52:32.180Z,50.21
2022-08-10T06:55:05.524Z,50.32
2022-08-10T06:57:39.995Z,50.00
2022-08-10T07:00:11.743Z,49.98
2022-08-10T07:02:48.117Z,49.93
2022-08-10T07:05:21.382Z,49.91
2022-08-10T07:07:52.470Z,49.89
2022-08-10T07:10:23.782Z,49.93
2022-08-10T07:13:00.122Z,49.90
2022-08-10T07:15:59.766Z,49.65
2022-08-10T07:18:22.106Z,49.77
2022-08-10T07:20:54.170Z,49.55
2022-08-10T07:23:57.814Z,49.80
2022-08-10T07:26:15.437Z,49.23
2022-08-10T07:28:47.995Z,49.11
2022-08-10T07:31:54.895Z,48.90
2022-08-10T07:34:10.709Z,48.73
2022-08-10T07:36:41.841Z,49.08
2022-08-10T07:39:11.698Z,48.68
2022-08-10T07:41:42.999Z,48.65
2022-08-10T07:44:13.107Z,48.51
2022-08-10T07:46:53.831Z,48.54
2022-08-10T07:49:27.807Z,48.54
2022-08-10T07:51:57.548Z,48.50
2022-08-10T07:54:29.410Z,48.33
2022-08-10T07:57:05.357Z,48.35
2022-08-10T07:59:39.134Z,48.05
2022-08-10T08:02:14.878Z,48.06
2022-08-10T08:04:50.298Z,47.94
2022-08-10T08:07:21.445Z,47.83
2022-08-10T08:09:57.997Z,48.06
2022-08-10T08:12:31.464Z,47.84
2022-08-10T08:16:14.268Z,47.63
2022-08-10T08:18:00.553Z,47.58
2022-08-10T08:20:30.422Z,47.31
2022-08-10T08:24:06.698Z,47.04
2022-08-10T08:25:50.249Z,47.01
2022-08-10T08:28:19.284Z,46.79
2022-08-10T08:30:49.200Z,46.35
2022-08-10T08:33:42.145Z,46.09
2022-08-10T08:36:10.659Z,45.94
2022-08-10T08:38:40.052Z,45.39
2022-08-10T08:41:30.374Z,45.14
2022-08-10T08:44:07.439Z,44.95
2022-08-10T08:46:59.492Z,44.24
2022-08-10T08:50:05.765Z,43.74
2022-08-10T08:52:53.653Z,43.01
2022-08-10T08:55:55.201Z,41.71
2022-08-10T08:58:38.428Z,41.03
2022-08-10T09:01:23.403Z,40.41
2022-08-10T09:04:25.569Z,40.01
2022-08-10T09:07:39.508Z,39.58
2022-08-10T09:10:08.258Z,39.23
2022-08-10T09:12:49.229Z,38.76
2022-08-10T09:15:40.427Z,38.65
2022-08-10T09:18:21.101Z,37.58
2022-08-10T09:20:57.463Z,37.31
2022-08-10T09:24:05.208Z,36.75
2022-08-10T09:26:43.064Z,36.54
2022-08-10T09:29:14.650Z,36.04
2022-08-10T09:32:54.310Z,35.55
2022-08-10T09:36:22.444Z,35.02
2022-08-10T09:38:02.271Z,34.25
2022-08-10T09:41:00.641Z,34.14
2022-08-10T09:43:42.325Z,33.74
2022-08-10T09:46:33.599Z,33.37
2022-08-10T09:49:17.305Z,32.88
2022-08-10T09:52:03.683Z,32.63
2022-08-10T09:54:48.979Z,32.28
2022-08-10T09:57:44.313Z,31.61
2022-08-10T10:00:19.165Z,31.54
2022-08-10T10:03:06.536Z,31.10
2022-08-10T10:05:51.404Z,30.73
2022-08-10T10:08:33.827Z,30.61
2022-08-10T10:11:08.960Z,30.25
2022-08-10T10:14:03.121Z,29.66
2022-08-10T10:17:01.358Z,29.89
2022-08-10T10:19:44.735Z,29.59
2022-08-10T10:22:38.312Z,29.08
2022-08-10T10:25:19.738Z,28.61
2022-08-10T10:28:01.481Z,28.60
2022-08-10T10:30:40.252Z,28.27
2022-08-10T10:33:14.954Z,27.69
2022-08-10T10:35:52.378Z,27.80
2022-08-10T10:38:24.394Z,27.59
2022-08-10T10:41:03.327Z,27.10
2022-08-10T10:43:43.996Z,26.62
2022-08-10T10:46:28.033Z,27.04
2022-08-10T10:49:04.865Z,27.24
2022-08-10T10:51:39.977Z,26.74
2022-08-10T10:54:13.183Z,27.40
2022-08-10T10:56:53.667Z,27.26
2022-08-10T10:59:55.739Z,27.48
2022-08-10T11:02:39.000Z,27.20
2022-08-10T11:05:20.488Z,27.12
2022-08-10T11:08:01.186Z,26.80
2022-08-10T11:10:46.273Z,27.17
2022-08-10T11:14:25.410Z,26.60
2022-08-10T11:16:31.630Z,26.48
2022-08-10T11:19:12.038Z,26.21
2022-08-10T11:21:56.234Z,26.06
2022-08-10T11:24:48.051Z,26.06
2022-08-10T11:27:29.958Z,25.81
2022-08-10T11:30:07.450Z,25.76
2022-08-10T11:32:54.918Z,25.30
2022-08-10T11:35:35.020Z,24.57
2022-08-10T11:38:31.925Z,24.54
2022-08-10T11:42:06.137Z,24.68
2022-08-10T11:44:19.088Z,24.28
2022-08-10T11:46:54.971Z,24.58
2022-08-10T11:49:32.470Z,24.53
2022-08-10T11:52:08.104Z,24.33
2022-08-10T11:54:43.697Z,24.61
2022-08-10T11:57:13.924Z,24.17
2022-08-10T11:59:59.582Z,24.17
2022-08-10T12:02:34.638Z,24.21
2022-08-10T12:05:08.670Z,24.71
2022-08-10T12:10:03.972Z,24.57
2022-08-10T12:10:36.397Z,24.08
2022-08-10T12:14:19.757Z,23.85
2022-08-10T12:16:50.728Z,24.07
2022-08-10T12:19:25.602Z,23.78
2022-08-10T12:22:05.609Z,23.30
2022-08-10T12:24:41.879Z,23.65
2022-08-10T12:27:15.531Z,23.31
2022-08-10T12:29:51.047Z,23.03
2022-08-10T12:32:28.553Z,22.43
2022-08-10T12:35:02.791Z,22.01
2022-08-10T12:37:37.046Z,22.26
2022-08-10T12:40:34.415Z,21.73
2022-08-10T12:44:03.999Z,21.05
2022-08-10T12:46:06.770Z,21.27
2022-08-10T12:48:43.044Z,21.16
2022-08-10T12:51:18.976Z,20.67
2022-08-10T12:53:55.082Z,21.11
2022-08-10T12:56:29.364Z,21.08
2022-08-10T12:59:01.698Z,20.18
2022-08-10T13:02:07.438Z,20.24
2022-08-10T13:04:33.972Z,20.03
2022-08-10T13:07:04.377Z,20.10
2022-08-10T13:09:56.210Z,20.23
2022-08-10T13:12:44.678Z,19.76
2022-08-10T13:15:45.225Z,19.91
2022-08-10T13:18:18.767Z,19.57
2022-08-10T13:20:53.025Z,19.79
2022-08-10T13:23:25.070Z,19.21
2022-08-10T13:25:56.411Z,18.96
2022-08-10T13:28:40.116Z,17.58
2022-08-10T13:31:18.253Z,17.03
2022-08-10T13:34:40.260Z,16.55
2022-08-10T13:36:41.890Z,16.40
2022-08-10T13:39:14.133Z,15.88
2022-08-10T13:41:45.505Z,15.76
2022-08-10T13:44:21.649Z,15.41
2022-08-10T13:46:53.173Z,14.65
2022-08-10T13:49:22.469Z,12.99
2022-08-10T13:51:54.372Z,12.83
2022-08-10T13:54:28.673Z,13.09
2022-08-10T13:56:58.087Z,13.21
2022-08-10T14:00:36.349Z,12.97
2022-08-10T14:02:37.537Z,13.38
2022-08-10T14:05:08.375Z,13.60
2022-08-10T14:07:45.163Z,13.50
2022-08-10T14:11:04.110Z,13.03
2022-08-10T14:13:27.910Z,12.52
2022-08-10T14:15:58.797Z,12.35
2022-08-10T14:18:27.984Z,12.67
2022-08-10T14:21:00.098Z,12.57
2022-08-10T14:23:28.418Z,12.33
2022-08-10T14:26:03.116Z,12.45
2022-08-10T14:28:37.364Z,12.46
2022-08-10T14:31:10.911Z,12.65
2022-08-10T14:33:42.823Z,12.24
2022-08-10T14:36:19.159Z,11.97
2022-08-10T14:38:55.780Z,11.81
2022-08-10T14:42:01.084Z,11.84
2022-08-10T14:44:19.661Z,12.06
2022-08-10T14:46:55.718Z,11.51
2022-08-10T14:49:27.300Z,11.45
2022-08-10T14:52:02.592Z,11.57
2022-08-10T14:54:34.918Z,11.31
2022-08-10T14:57:11.242Z,11.66
2022-08-10T15:00:25.133Z,11.61
2022-08-10T15:02:55.873Z,12.11
2022-08-10T15:05:39.979Z,12.30
2022-08-10T15:08:12.107Z,12.17
2022-08-10T15:10:42.174Z,11.77
2022-08-10T15:13:33.472Z,11.56
2022-08-10T15:16:13.078Z,11.67
2022-08-10T15:18:57.854Z,11.26
2022-08-10T15:21:43.438Z,11.33
2022-08-10T15:24:36.612Z,11.09
2022-08-10T15:27:08.961Z,10.11
2022-08-10T15:29:56.774Z,10.42
2022-08-10T15:32:52.536Z,10.23
2022-08-10T15:35:42.001Z,10.43
2022-08-10T15:38:11.138Z,10.81
2022-08-10T15:40:52.187Z,10.90
2022-08-10T15:43:24.889Z,10.96
2022-08-10T15:46:00.013Z,10.91
2022-08-10T15:48:32.669Z,10.89
2022-08-10T15:51:07.512Z,10.61
2022-08-10T15:53:46.942Z,10.66
2022-08-10T15:56:28.374Z,10.84
2022-08-10T15:59:08.268Z,10.85
2022-08-10T16:02:14.621Z,10.62
2022-08-10T16:04:37.159Z,10.48
2022-08-10T16:07:10.542Z,10.51
2022-08-10T16:10:22.540Z,10.45
2022-08-10T16:12:40.350Z,10.57
2022-08-10T16:15:13.714Z,10.54
2022-08-10T16:17:55.485Z,10.02
2022-08-10T16:20:31.344Z,9.96
2022-08-10T16:23:04.897Z,9.96
2022-08-10T16:25:51.338Z,10.37
2022-08-10T16:28:24.112Z,10.20
2022-08-10T16:30:55.359Z,9.76
2022-08-10T16:33:26.227Z,9.91
2022-08-10T16:36:18.775Z,9.97
2022-08-10T16:38:51.432Z,9.91
2022-08-10T16:42:02.666Z,9.93
2022-08-10T16:44:12.903Z,9.97
2022-08-10T16:46:45.705Z,10.30
2022-08-10T16:49:18.504Z,9.98
2022-08-10T16:51:52.869Z,9.92
2022-08-10T16:54:27.517Z,9.96
2022-08-10T16:57:02.357Z,9.93
2022-08-10T16:59:38.997Z,9.67
2022-08-10T17:02:09.100Z,9.52
2022-08-10T17:04:47.319Z,9.03
2022-08-10T17:07:18.842Z,8.86
2022-08-10T17:09:58.608Z,8.92
2022-08-10T17:12:29.738Z,8.89
2022-08-10T17:15:09.432Z,9.26
2022-08-10T17:17:43.115Z,8.87
2022-08-10T17:20:32.141Z,9.22
2022-08-10T17:23:14.194Z,9.08
2022-08-10T17:25:50.726Z,9.52
2022-08-10T17:28:33.046Z,9.42
2022-08-10T17:31:24.022Z,8.99
2022-08-10T17:34:00.609Z,9.10
2022-08-10T17:36:34.934Z,9.21
2022-08-10T17:39:04.456Z,9.31
2022-08-10T17:41:36.809Z,9.46
2022-08-10T17:44:08.062Z,9.35
2022-08-10T17:46:39.937Z,9.04
2022-08-10T17:49:10.783Z,9.06
2022-08-10T17:51:40.909Z,9.52
2022-08-10T17:54:16.362Z,9.42
2022-08-10T17:56:47.657Z,9.89
2022-08-10T17:59:17.189Z,9.80
2022-08-10T18:01:58.359Z,10.01
2022-08-10T18:04:34.202Z,9.82
2022-08-10T18:07:11.466Z,10.13
2022-08-10T18:09:43.544Z,10.14
2022-08-10T18:12:18.674Z,10.26
2022-08-10T18:14:51.371Z,10.36
2022-08-10T18:17:23.013Z,10.58
2022-08-10T18:19:55.595Z,10.74
2022-08-10T18:22:25.241Z,10.74
2022-08-10T18:24:55.339Z,10.75
2022-08-10T18:28:01.656Z,10.86
2022-08-10T18:30:18.846Z,10.69
2022-08-10T18:32:50.587Z,10.78
2022-08-10T18:35:20.678Z,10.63
2022-08-10T18:37:52.172Z,10.70
2022-08-10T18:40:21.284Z,10.69
2022-08-10T18:44:06.777Z,11.02
2022-08-10T18:46:00.121Z,10.92
2022-08-10T18:48:38.638Z,11.15
2022-08-10T18:51:08.948Z,11.35
2022-08-10T18:53:41.355Z,12.26
2022-08-10T18:56:19.422Z,12.85
2022-08-10T18:59:09.935Z,14.12
2022-08-10T19:02:08.307Z,14.90
2022-08-10T19:04:56.510Z,15.53
2022-08-10T19:07:42.714Z,16.18
2022-08-10T19:10:25.250Z,16.19
2022-08-10T19:13:01.031Z,16.39
2022-08-10T19:15:40.324Z,17.27
2022-08-10T19:18:33.032Z,17.88
2022-08-10T19:21:12.794Z,18.52
2022-08-10T19:24:00.469Z,19.49
2022-08-10T19:26:44.015Z,20.28
2022-08-10T19:30:09.561Z,20.95
2022-08-10T19:32:33.534Z,21.56
2022-08-10T19:35:09.137Z,21.84
2022-08-10T19:37:45.027Z,22.33
2022-08-10T19:40:44.083Z,22.37
2022-08-10T19:44:00.480Z,22.98
2022-08-10T19:46:19.335Z,23.37
2022-08-10T19:49:00.250Z,23.39
2022-08-10T19:51:38.267Z,23.74
2022-08-10T19:54:14.859Z,24.04
2022-08-10T19:57:02.057Z,23.97
2022-08-10T20:00:16.935Z,24.29
2022-08-10T20:02:33.502Z,24.46
2022-08-10T20:05:09.329Z,24.63
2022-08-10T20:07:48.495Z,24.22
2022-08-10T20:10:22.955Z,24.59
2022-08-10T20:12:56.788Z,24.56
2022-08-10T20:15:41.604Z,24.88
2022-08-10T20:18:20.227Z,24.90
2022-08-10T20:20:53.091Z,25.01
2022-08-10T20:23:25.269Z,25.03
2022-08-10T20:25:58.541Z,24.85
2022-08-10T20:28:36.700Z,24.54
2022-08-10T20:31:11.608Z,25.02
2022-08-10T20:34:00.661Z,24.84
2022-08-10T20:36:34.949Z,24.70
2022-08-10T20:39:17.900Z,24.87
2022-08-10T20:41:58.796Z,24.95
2022-08-10T20:44:39.429Z,24.59
2022-08-10T20:47:13.006Z,24.90
2022-08-10T20:49:49.734Z,24.89
2022-08-10T20:52:20.221Z,25.07
2022-08-10T20:54:52.496Z,25.07
2022-08-10T20:57:54.790Z,25.21
2022-08-10T21:00:25.302Z,25.16
2022-08-10T21:03:21.086Z,25.38
2022-08-10T21:06:00.374Z,24.87
2022-08-10T21:08:44.332Z,25.18
2022-08-10T21:11:22.355Z,25.65
2022-08-10T21:14:13.348Z,25.53
2022-08-10T21:16:50.678Z,25.66
2022-08-10T21:19:39.466Z,25.91
2022-08-10T21:22:22.445Z,25.86
2022-08-10T21:25:02.178Z,26.21
2022-08-10T21:27:55.320Z,26.38
2022-08-10T21:30:37.778Z,26.82
2022-08-10T21:33:12.040Z,26.73
2022-08-10T21:35:45.095Z,26.94
2022-08-10T21:38:24.340Z,26.98
2022-08-10T21:41:56.941Z,27.50
2022-08-10T21:44:53.089Z,27.40
2022-08-10T21:48:06.948Z,27.91
2022-08-10T21:51:09.407Z,28.10
2022-08-10T21:54:07.477Z,28.38
2022-08-10T21:57:01.858Z,28.37
2022-08-10T21:59:56.436Z,28.26
2022-08-10T22:02:50.334Z,28.57
2022-08-10T22:05:42.762Z,29.00
2022-08-10T22:08:31.536Z,29.32
2022-08-10T22:11:21.578Z,29.97
2022-08-10T22:14:10.706Z,30.18
2022-08-10T22:17:05.105Z,30.33
2022-08-10T22:19:54.856Z,30.20
2022-08-10T22:22:56.269Z,30.68
2022-08-10T22:25:57.015Z,31.02
2022-08-10T22:28:48.736Z,30.89
2022-08-10T22:31:53.708Z,31.37
2022-08-10T22:35:02.695Z,31.47
2022-08-10T22:38:07.690Z,31.68
2022-08-10T22:40:53.922Z,31.68
2022-08-10T22:43:45.406Z,32.23
2022-08-10T22:46:37.822Z,32.37
2022-08-10T22:49:06.732Z,32.57
2022-08-10T22:52:01.638Z,32.86
2022-08-10T22:54:52.722Z,33.29
2022-08-10T22:57:38.800Z,33.42
2022-08-10T23:00:15.933Z,34.00
2022-08-10T23:02:52.397Z,34.08
2022-08-10T23:05:31.501Z,34.38
2022-08-10T23:08:05.591Z,34.62
2022-08-10T23:10:40.317Z,34.92
2022-08-10T23:13:12.766Z,35.15
2022-08-10T23:16:16.415Z,35.45
2022-08-10T23:19:07.091Z,35.64
2022-08-10T23:22:03.514Z,35.78
2022-08-10T23:24:37.329Z,36.22
2022-08-10T23:27:10.305Z,37.01
2022-08-10T23:39:26.601Z,39.21
2022-08-10T23:42:04.606Z,39.39
2022-08-10T23:44:37.254Z,39.89
2022-08-10T23:47:06.876Z,39.95
2022-08-10T23:49:36.864Z,40.25
2022-08-10T23:52:13.596Z,40.39
2022-08-10T23:54:52.060Z,40.66
2022-08-10T23:57:23.168Z,40.34
2022-08-10T23:59:58.185Z,40.40
